createdAt,value
2022-10-31T00:03:46.679Z,12.52
2022-10-31T00:06:14.282Z,12.53
2022-10-31T00:08:42.015Z,12.56
2022-10-31T00:11:11.615Z,12.58
2022-10-31T00:13:39.324Z,12.58
2022-10-31T00:16:07.460Z,12.59
2022-10-31T00:18:35.147Z,12.60
2022-10-31T00:21:05.575Z,12.66
2022-10-31T00:23:33.193Z,12.68
2022-10-31T00:26:03.517Z,12.69
2022-10-31T00:28:33.019Z,12.66
2022-10-31T00:31:02.293Z,12.63
2022-10-31T00:33:30.404Z,12.62
2022-10-31T00:35:58.368Z,12.64
2022-10-31T00:38:27.455Z,12.58
2022-10-31T00:40:55.110Z,12.55
2022-10-31T00:43:23.168Z,12.37
2022-10-31T00:45:50.800Z,12.49
2022-10-31T00:48:18.591Z,12.50
2022-10-31T00:50:46.219Z,12.47
2022-10-31T00:53:14.033Z,12.40
2022-10-31T00:55:43.045Z,12.41
2022-10-31T00:58:10.695Z,12.41
2022-10-31T01:00:38.357Z,12.45
2022-10-31T01:03:06.182Z,12.39
2022-10-31T01:05:34.325Z,12.39
2022-10-31T01:08:01.961Z,12.45
2022-10-31T01:10:29.637Z,12.43
2022-10-31T01:12:58.846Z,12.41
2022-10-31T01:15:26.798Z,12.44
2022-10-31T01:17:54.433Z,12.42
2022-10-31T01:20:22.191Z,12.43
2022-10-31T01:22:49.834Z,12.48
2022-10-31T01:25:17.544Z,12.51
2022-10-31T01:27:45.468Z,12.51
2022-10-31T01:30:15.025Z,12.46
2022-10-31T01:32:42.635Z,12.52
2022-10-31T01:35:10.346Z,12.50
2022-10-31T01:37:37.975Z,12.49
2022-10-31T01:40:06.807Z,12.49
2022-10-31T01:42:34.436Z,12.56
2022-10-31T01:45:03.343Z,12.59
2022-10-31T01:47:44.473Z,12.59
2022-10-31T01:50:17.349Z,12.58
2022-10-31T01:52:47.745Z,12.59
2022-10-31T01:55:19.965Z,12.61
2022-10-31T01:57:50.530Z,12.58
2022-10-31T02:00:18.945Z,12.57
2022-10-31T02:02:49.876Z,12.61
2022-10-31T02:05:20.712Z,12.63
2022-10-31T02:07:59.358Z,12.70
2022-10-31T02:10:27.341Z,12.70
2022-10-31T02:12:59.529Z,12.73
2022-10-31T02:15:27.927Z,12.67
2022-10-31T02:17:57.282Z,12.61
2022-10-31T02:20:27.837Z,12.55
2022-10-31T02:23:35.855Z,12.68
2022-10-31T02:26:33.194Z,12.62
2022-10-31T02:29:18.356Z,12.70
2022-10-31T02:31:56.209Z,12.72
2022-10-31T02:34:32.812Z,12.71
2022-10-31T02:37:08.865Z,12.63
2022-10-31T02:39:45.249Z,12.71
2022-10-31T02:42:18.796Z,12.60
2022-10-31T02:44:52.077Z,12.50
2022-10-31T02:47:26.280Z,12.44
2022-10-31T02:49:59.935Z,12.39
2022-10-31T02:52:30.069Z,12.42
2022-10-31T02:54:57.937Z,12.41
2022-10-31T02:57:29.727Z,12.31
2022-10-31T03:00:02.882Z,12.39
2022-10-31T03:02:47.737Z,12.54
2022-10-31T03:05:45.127Z,12.60
2022-10-31T03:08:22.128Z,12.63
2022-10-31T03:10:55.728Z,12.68
2022-10-31T03:13:34.933Z,12.70
2022-10-31T03:16:11.205Z,12.62
2022-10-31T03:18:43.764Z,12.70
2022-10-31T03:21:15.531Z,12.75
2022-10-31T03:23:46.846Z,12.79
2022-10-31T03:26:17.107Z,12.71
2022-10-31T03:28:51.811Z,12.78
2022-10-31T03:31:24.422Z,12.77
2022-10-31T03:33:55.709Z,12.72
2022-10-31T03:36:24.730Z,12.69
2022-10-31T03:38:53.622Z,12.59
2022-10-31T03:41:26.889Z,12.66
2022-10-31T03:43:59.777Z,12.55
2022-10-31T03:46:27.932Z,12.48
2022-10-31T03:48:57.334Z,12.41
2022-10-31T03:51:28.645Z,12.40
2022-10-31T03:54:02.261Z,12.38
2022-10-31T03:56:36.558Z,12.33
2022-10-31T03:59:08.333Z,12.25
2022-10-31T04:01:42.200Z,12.17
2022-10-31T04:04:12.036Z,12.10
2022-10-31T04:06:42.714Z,12.02
2022-10-31T04:09:11.534Z,11.92
2022-10-31T04:11:42.662Z,11.93
2022-10-31T04:14:13.203Z,11.87
2022-10-31T04:16:43.472Z,11.85
2022-10-31T04:19:13.045Z,11.82
2022-10-31T04:21:40.685Z,11.64
2022-10-31T04:24:08.976Z,11.44
2022-10-31T04:26:37.060Z,11.55
2022-10-31T04:29:04.722Z,11.48
2022-10-31T04:31:32.407Z,11.41
2022-10-31T04:34:00.087Z,11.50
2022-10-31T04:36:29.081Z,11.44
2022-10-31T04:38:56.996Z,11.41
2022-10-31T04:41:24.823Z,11.26
2022-10-31T04:43:52.484Z,11.38
2022-10-31T04:46:20.135Z,11.35
2022-10-31T04:48:47.733Z,11.31
2022-10-31T04:51:15.375Z,11.31
2022-10-31T04:53:44.350Z,11.27
2022-10-31T04:56:12.033Z,11.23
2022-10-31T04:58:39.660Z,11.21
2022-10-31T05:01:07.693Z,11.04
2022-10-31T05:03:35.420Z,11.15
2022-10-31T05:06:03.073Z,11.16
2022-10-31T05:08:30.777Z,11.13
2022-10-31T05:11:04.530Z,11.04
2022-10-31T05:13:33.198Z,10.95
2022-10-31T05:16:00.786Z,10.99
2022-10-31T05:18:28.445Z,10.99
2022-10-31T05:20:56.115Z,11.01
2022-10-31T05:23:23.738Z,10.98
2022-10-31T05:25:51.622Z,10.91
2022-10-31T05:28:20.626Z,10.82
2022-10-31T05:30:48.390Z,10.88
2022-10-31T05:33:16.064Z,10.63
2022-10-31T05:35:44.198Z,10.83
2022-10-31T05:38:11.924Z,10.89
2022-10-31T05:40:39.570Z,10.88
2022-10-31T05:43:07.219Z,10.91
2022-10-31T05:45:36.319Z,10.87
2022-10-31T05:48:04.686Z,10.88
2022-10-31T05:50:33.619Z,10.91
2022-10-31T05:53:03.789Z,10.88
2022-10-31T05:55:32.649Z,10.84
2022-10-31T05:58:00.669Z,10.78
2022-10-31T06:00:29.611Z,10.82
2022-10-31T06:03:02.733Z,10.85
2022-10-31T06:05:30.851Z,10.82
2022-10-31T06:07:59.672Z,10.75
2022-10-31T06:10:28.265Z,10.68
2022-10-31T06:12:55.945Z,10.74
2022-10-31T06:15:24.714Z,10.73
2022-10-31T06:18:02.616Z,10.75
2022-10-31T06:20:30.613Z,10.70
2022-10-31T06:22:58.601Z,10.82
2022-10-31T06:25:26.581Z,10.81
2022-10-31T06:27:54.302Z,10.78
2022-10-31T06:30:22.024Z,10.87
2022-10-31T06:32:50.361Z,10.89
2022-10-31T06:35:19.547Z,10.87
2022-10-31T06:37:53.152Z,10.91
2022-10-31T06:40:21.086Z,10.94
2022-10-31T06:42:48.747Z,10.65
2022-10-31T06:45:16.515Z,10.93
2022-10-31T06:48:10.871Z,10.85
2022-10-31T06:50:33.262Z,10.92
2022-10-31T06:53:01.393Z,10.97
2022-10-31T06:55:29.492Z,10.94
2022-10-31T06:58:01.914Z,11.04
2022-10-31T07:00:32.259Z,11.06
2022-10-31T07:03:01.507Z,11.11
2022-10-31T07:05:30.070Z,11.18
2022-10-31T07:08:01.924Z,11.16
2022-10-31T07:10:34.258Z,11.20
2022-10-31T07:13:06.984Z,11.22
2022-10-31T07:15:37.322Z,11.23
2022-10-31T07:18:06.279Z,11.25
2022-10-31T07:20:34.122Z,11.27
2022-10-31T07:23:03.326Z,11.33
2022-10-31T07:25:31.566Z,11.36
2022-10-31T07:27:59.737Z,11.38
2022-10-31T07:30:27.743Z,11.43
2022-10-31T07:32:56.640Z,11.44
2022-10-31T07:35:26.962Z,11.45
2022-10-31T07:37:55.592Z,11.49
2022-10-31T07:40:25.550Z,11.52
2022-10-31T07:42:54.796Z,11.54
2022-10-31T07:45:23.027Z,11.58
2022-10-31T07:47:52.038Z,11.61
2022-10-31T07:50:21.818Z,11.63
2022-10-31T07:52:50.134Z,11.58
2022-10-31T07:55:17.838Z,11.63
2022-10-31T07:57:46.840Z,11.74
2022-10-31T08:00:14.975Z,11.80
2022-10-31T08:02:42.979Z,11.87
2022-10-31T08:05:10.683Z,11.97
2022-10-31T08:07:39.300Z,12.03
2022-10-31T08:10:07.671Z,12.06
2022-10-31T08:12:35.329Z,12.12
2022-10-31T08:15:04.633Z,12.20
2022-10-31T08:17:32.375Z,12.28
2022-10-31T08:20:00.234Z,12.33
2022-10-31T08:22:27.975Z,12.28
2022-10-31T08:24:55.595Z,12.41
2022-10-31T08:27:23.365Z,12.47
2022-10-31T08:29:51.061Z,12.43
2022-10-31T08:32:20.095Z,12.57
2022-10-31T08:34:47.866Z,12.65
2022-10-31T08:37:19.678Z,12.73
2022-10-31T08:39:47.598Z,12.82
2022-10-31T08:42:15.253Z,12.90
2022-10-31T08:44:42.966Z,12.89
2022-10-31T08:47:10.632Z,13.03
2022-10-31T08:49:39.691Z,13.10
2022-10-31T08:52:10.663Z,13.25
2022-10-31T08:54:41.846Z,13.38
2022-10-31T08:57:09.660Z,13.21
2022-10-31T08:59:37.271Z,13.66
2022-10-31T09:02:04.965Z,13.74
2022-10-31T09:04:32.823Z,13.76
2022-10-31T09:07:20.090Z,13.95
2022-10-31T09:09:48.539Z,13.77
2022-10-31T09:12:16.313Z,14.19
2022-10-31T09:14:43.935Z,14.23
2022-10-31T09:17:11.641Z,14.25
2022-10-31T09:19:39.809Z,14.47
2022-10-31T09:22:08.864Z,14.63
2022-10-31T09:24:36.458Z,14.71
2022-10-31T09:27:04.461Z,14.78
2022-10-31T09:29:32.141Z,14.77
2022-10-31T09:31:59.793Z,14.80
2022-10-31T09:34:28.395Z,14.95
2022-10-31T09:36:56.022Z,14.98
2022-10-31T09:39:25.406Z,15.14
2022-10-31T09:42:21.241Z,15.29
2022-10-31T09:44:55.878Z,15.35
2022-10-31T09:47:35.851Z,15.38
2022-10-31T09:50:17.386Z,15.42
2022-10-31T09:52:54.386Z,15.51
2022-10-31T09:55:31.379Z,15.49
2022-10-31T09:58:01.695Z,15.47
2022-10-31T10:00:29.606Z,15.50
2022-10-31T10:03:04.379Z,15.56
2022-10-31T10:05:38.967Z,15.67
2022-10-31T10:08:12.827Z,15.83
2022-10-31T10:10:50.370Z,15.82
2022-10-31T10:13:43.419Z,15.98
2022-10-31T10:16:34.552Z,16.06
2022-10-31T10:19:19.223Z,16.07
2022-10-31T10:21:52.961Z,16.18
2022-10-31T10:24:33.775Z,16.30
2022-10-31T10:27:16.774Z,16.41
2022-10-31T10:29:52.562Z,16.25
2022-10-31T10:32:25.414Z,16.25
2022-10-31T10:34:57.102Z,16.40
2022-10-31T10:37:30.930Z,16.46
2022-10-31T10:40:09.041Z,16.42
2022-10-31T10:42:56.338Z,16.43
2022-10-31T10:45:41.688Z,16.36
2022-10-31T10:48:16.657Z,16.63
2022-10-31T10:50:50.435Z,16.74
2022-10-31T10:53:36.189Z,16.97
2022-10-31T10:56:14.056Z,17.06
2022-10-31T10:58:44.106Z,17.01
2022-10-31T11:03:43.923Z,17.09
2022-10-31T11:06:29.447Z,16.97
2022-10-31T11:08:57.106Z,16.72
2022-10-31T11:11:31.847Z,16.91
2022-10-31T11:14:05.274Z,17.00
2022-10-31T11:16:41.012Z,17.07
2022-10-31T11:19:19.180Z,17.11
2022-10-31T11:21:52.834Z,17.17
2022-10-31T11:24:24.067Z,17.09
2022-10-31T11:26:53.137Z,17.14
2022-10-31T11:29:26.462Z,17.10
2022-10-31T11:31:55.600Z,17.08
2022-10-31T11:34:33.185Z,17.11
2022-10-31T11:37:06.324Z,17.14
2022-10-31T11:39:34.016Z,17.15
2022-10-31T11:42:08.957Z,17.24
2022-10-31T11:44:38.356Z,17.03
2022-10-31T11:47:08.061Z,17.09
2022-10-31T11:49:38.543Z,17.23
2022-10-31T11:52:09.509Z,17.20
2022-10-31T11:54:44.397Z,17.39
2022-10-31T11:57:25.391Z,17.50
2022-10-31T11:59:57.028Z,17.51
2022-10-31T12:02:25.424Z,17.65
2022-10-31T12:05:01.992Z,17.60
2022-10-31T12:07:29.810Z,17.66
2022-10-31T12:09:57.509Z,17.70
2022-10-31T12:13:01.913Z,17.79
2022-10-31T12:15:34.040Z,17.83
2022-10-31T12:18:19.878Z,17.99
2022-10-31T12:20:59.331Z,18.02
2022-10-31T12:23:35.566Z,18.03
2022-10-31T12:26:16.593Z,18.05
2022-10-31T12:29:03.113Z,18.15
2022-10-31T12:31:42.472Z,18.32
2022-10-31T12:34:37.534Z,18.42
2022-10-31T12:37:13.327Z,18.48
2022-10-31T12:39:48.624Z,18.50
2022-10-31T12:42:25.551Z,18.61
2022-10-31T12:45:20.329Z,18.67
2022-10-31T12:48:08.778Z,18.67
2022-10-31T12:50:52.742Z,18.98
2022-10-31T12:53:33.437Z,19.00
2022-10-31T12:56:13.264Z,19.00
2022-10-31T12:58:48.220Z,19.23
2022-10-31T13:01:21.060Z,19.30
2022-10-31T13:03:57.919Z,19.38
2022-10-31T13:06:32.823Z,19.31
2022-10-31T13:09:04.996Z,19.36
2022-10-31T13:11:37.298Z,19.49
2022-10-31T13:14:09.938Z,19.42
2022-10-31T13:16:42.180Z,19.64
2022-10-31T13:19:18.299Z,19.73
2022-10-31T13:21:57.360Z,19.73
2022-10-31T13:24:33.346Z,19.77
2022-10-31T13:27:04.373Z,19.74
2022-10-31T13:29:35.657Z,19.74
2022-10-31T13:32:07.002Z,19.79
2022-10-31T13:34:40.267Z,19.71
2022-10-31T13:37:19.354Z,19.75
2022-10-31T13:39:58.283Z,19.64
2022-10-31T13:42:33.736Z,19.53
2022-10-31T13:45:13.894Z,19.54
2022-10-31T13:47:43.354Z,19.53
2022-10-31T13:50:24.641Z,19.59
2022-10-31T13:52:52.355Z,19.59
2022-10-31T13:55:41.395Z,19.49
2022-10-31T13:58:24.541Z,19.41
2022-10-31T14:01:12.381Z,19.21
2022-10-31T14:04:07.884Z,19.48
2022-10-31T14:06:55.359Z,19.31
2022-10-31T14:09:28.432Z,19.34
2022-10-31T14:11:58.068Z,19.50
2022-10-31T14:14:32.208Z,19.59
2022-10-31T14:17:00.925Z,19.61
2022-10-31T14:19:28.964Z,19.68
2022-10-31T14:21:57.954Z,19.79
2022-10-31T14:24:37.799Z,19.79
2022-10-31T14:27:27.554Z,19.76
2022-10-31T14:29:55.305Z,19.86
2022-10-31T14:32:25.437Z,19.76
2022-10-31T14:34:55.951Z,19.70
2022-10-31T14:38:01.158Z,19.67
2022-10-31T14:40:37.794Z,19.61
2022-10-31T14:43:47.739Z,19.59
2022-10-31T14:46:24.721Z,19.51
2022-10-31T14:49:07.558Z,19.22
2022-10-31T14:51:40.567Z,19.16
2022-10-31T14:54:15.714Z,19.12
2022-10-31T14:56:50.573Z,18.96
2022-10-31T14:59:24.368Z,19.08
2022-10-31T15:01:58.850Z,19.09
2022-10-31T15:04:29.720Z,19.06
2022-10-31T15:07:02.733Z,19.02
2022-10-31T15:09:33.426Z,19.08
2022-10-31T15:12:01.760Z,18.98
2022-10-31T15:14:30.933Z,19.02
2022-10-31T15:17:00.331Z,18.98
2022-10-31T15:19:30.729Z,18.92
2022-10-31T15:21:59.718Z,18.89
2022-10-31T15:24:37.345Z,18.82
2022-10-31T15:27:05.623Z,18.72
2022-10-31T15:29:33.481Z,18.56
2022-10-31T15:32:03.753Z,18.54
2022-10-31T15:34:39.133Z,18.35
2022-10-31T15:37:07.194Z,18.35
2022-10-31T15:39:36.275Z,18.39
2022-10-31T15:42:04.153Z,18.34
2022-10-31T15:44:35.388Z,18.29
2022-10-31T15:47:05.554Z,18.31
2022-10-31T15:49:37.771Z,18.30
2022-10-31T15:52:10.301Z,18.26
2022-10-31T15:54:48.142Z,18.21
2022-10-31T15:57:16.162Z,18.10
2022-10-31T15:59:48.193Z,18.05
2022-10-31T16:02:20.188Z,18.02
2022-10-31T16:04:54.263Z,17.84
2022-10-31T16:07:23.768Z,17.75
2022-10-31T16:09:55.489Z,17.72
2022-10-31T16:12:24.350Z,17.70
2022-10-31T16:14:53.905Z,17.67
2022-10-31T16:17:24.522Z,17.54
2022-10-31T16:19:56.418Z,17.39
2022-10-31T16:22:28.137Z,17.25
2022-10-31T16:25:02.152Z,17.11
2022-10-31T16:27:33.210Z,17.02
2022-10-31T16:30:05.188Z,17.01
2022-10-31T16:32:35.875Z,16.89
2022-10-31T16:35:20.242Z,16.89
2022-10-31T16:37:47.896Z,16.67
2022-10-31T16:40:18.569Z,16.63
2022-10-31T16:42:48.212Z,16.39
2022-10-31T16:45:18.623Z,16.22
2022-10-31T16:47:46.603Z,16.11
2022-10-31T16:50:16.903Z,16.06
2022-10-31T16:53:08.290Z,15.95
2022-10-31T16:55:35.932Z,15.54
2022-10-31T16:58:04.515Z,15.39
2022-10-31T17:00:32.676Z,15.29
2022-10-31T17:03:00.455Z,15.16
2022-10-31T17:05:30.311Z,15.19
2022-10-31T17:07:58.240Z,15.14
2022-10-31T17:10:26.825Z,15.07
2022-10-31T17:12:57.438Z,15.01
2022-10-31T17:15:26.847Z,14.79
2022-10-31T17:17:55.351Z,14.86
2022-10-31T17:20:25.619Z,14.70
2022-10-31T17:22:53.767Z,14.50
2022-10-31T17:25:24.693Z,14.44
2022-10-31T17:27:53.034Z,14.44
2022-10-31T17:30:23.289Z,14.33
2022-10-31T17:32:51.686Z,14.40
2022-10-31T17:35:20.618Z,14.36
2022-10-31T17:37:48.860Z,14.27
2022-10-31T17:40:19.178Z,14.17
2022-10-31T17:42:51.176Z,14.03
2022-10-31T17:45:19.568Z,13.99
2022-10-31T17:47:49.676Z,13.83
2022-10-31T17:50:18.118Z,13.63
2022-10-31T17:52:46.089Z,13.88
2022-10-31T17:55:13.775Z,13.93
2022-10-31T17:57:41.745Z,13.86
2022-10-31T18:00:12.704Z,13.80
2022-10-31T18:02:40.660Z,13.87
2022-10-31T18:05:10.378Z,13.85
2022-10-31T18:07:38.415Z,13.80
2022-10-31T18:10:07.405Z,13.83
2022-10-31T18:12:36.972Z,13.87
2022-10-31T18:15:05.896Z,14.15
2022-10-31T18:17:34.923Z,14.29
2022-10-31T18:20:05.762Z,14.52
2022-10-31T18:22:35.969Z,14.83
2022-10-31T18:25:04.193Z,15.15
2022-10-31T18:27:31.819Z,15.31
2022-10-31T18:29:59.433Z,15.20
2022-10-31T18:32:27.221Z,15.16
2022-10-31T18:34:54.853Z,15.09
2022-10-31T18:37:22.765Z,14.95
2022-10-31T18:39:51.778Z,14.98
2022-10-31T18:42:19.429Z,14.81
2022-10-31T18:44:47.058Z,15.05
2022-10-31T18:47:14.698Z,15.09
2022-10-31T18:49:42.565Z,15.22
2022-10-31T18:52:10.261Z,15.20
2022-10-31T18:54:38.771Z,15.25
2022-10-31T18:57:07.806Z,15.18
2022-10-31T18:59:35.470Z,15.06
2022-10-31T19:02:03.438Z,15.09
2022-10-31T19:04:31.196Z,15.14
2022-10-31T19:06:58.893Z,15.25
2022-10-31T19:09:26.530Z,15.20
2022-10-31T19:11:54.176Z,15.11
2022-10-31T19:14:23.211Z,14.99
2022-10-31T19:16:52.459Z,15.10
2022-10-31T19:19:20.881Z,15.05
2022-10-31T19:21:48.780Z,15.11
2022-10-31T19:24:16.429Z,15.03
2022-10-31T19:26:44.140Z,15.05
2022-10-31T19:29:11.847Z,15.06
2022-10-31T19:31:40.856Z,15.21
2022-10-31T19:34:08.559Z,15.22
2022-10-31T19:36:36.553Z,15.10
2022-10-31T19:39:04.407Z,15.13
2022-10-31T19:41:32.122Z,15.20
2022-10-31T19:44:00.838Z,15.29
2022-10-31T19:46:51.774Z,15.23
2022-10-31T19:49:17.861Z,15.45
2022-10-31T19:51:45.488Z,15.39
2022-10-31T19:54:13.343Z,15.40
2022-10-31T19:56:41.109Z,15.35
2022-10-31T19:59:09.209Z,15.25
2022-10-31T20:01:37.117Z,15.38
2022-10-31T20:04:05.079Z,15.41
2022-10-31T20:06:35.779Z,15.35
2022-10-31T20:09:05.897Z,15.29
2022-10-31T20:11:33.525Z,15.14
2022-10-31T20:14:01.500Z,15.11
2022-10-31T20:16:29.573Z,15.14
2022-10-31T20:18:59.523Z,15.13
2022-10-31T20:21:29.971Z,15.24
2022-10-31T20:24:00.923Z,15.20
2022-10-31T20:26:30.150Z,15.49
2022-10-31T20:28:59.099Z,15.56
2022-10-31T20:31:29.781Z,15.56
2022-10-31T20:33:57.504Z,15.51
2022-10-31T20:36:25.387Z,15.51
2022-10-31T20:38:53.772Z,15.44
2022-10-31T20:41:22.897Z,15.48
2022-10-31T20:43:50.539Z,15.59
2022-10-31T20:46:20.976Z,15.40
2022-10-31T20:48:49.076Z,15.47
2022-10-31T20:51:18.416Z,15.50
2022-10-31T20:53:46.892Z,15.49
2022-10-31T20:56:17.262Z,15.55
2022-10-31T20:58:47.160Z,15.71
2022-10-31T21:01:16.842Z,15.80
2022-10-31T21:03:45.477Z,15.78
2022-10-31T21:06:13.865Z,15.59
2022-10-31T21:08:41.624Z,15.62
2022-10-31T21:11:11.282Z,15.86
2022-10-31T21:13:41.065Z,15.76
2022-10-31T21:16:13.105Z,15.73
2022-10-31T21:18:42.234Z,15.81
2022-10-31T21:21:11.138Z,15.85
2022-10-31T21:23:38.836Z,15.87
2022-10-31T21:26:08.128Z,15.94
2022-10-31T21:28:35.947Z,16.11
2022-10-31T21:31:07.912Z,16.11
2022-10-31T21:33:37.769Z,16.18
2022-10-31T21:36:06.338Z,16.04
2022-10-31T21:38:36.414Z,15.99
2022-10-31T21:41:08.610Z,16.02
2022-10-31T21:43:37.241Z,16.04
2022-10-31T21:46:06.151Z,16.07
2022-10-31T21:48:34.846Z,16.03
2022-10-31T21:51:09.189Z,16.01
2022-10-31T21:53:55.056Z,16.04
2022-10-31T21:56:23.131Z,16.09
2022-10-31T21:58:51.686Z,16.03
2022-10-31T22:01:19.674Z,16.17
2022-10-31T22:03:47.397Z,16.22
2022-10-31T22:06:16.944Z,16.27
2022-10-31T22:08:44.718Z,16.23
2022-10-31T22:11:14.720Z,16.18
2022-10-31T22:13:43.405Z,16.27
2022-10-31T22:16:12.885Z,16.27
2022-10-31T22:18:41.581Z,16.36
2022-10-31T22:21:11.134Z,16.32
2022-10-31T22:23:40.616Z,16.34
2022-10-31T22:26:09.894Z,16.34
2022-10-31T22:28:37.557Z,16.40
2022-10-31T22:31:06.056Z,16.41
2022-10-31T22:33:34.951Z,16.47
2022-10-31T22:36:03.905Z,16.39
2022-10-31T22:38:34.242Z,16.40
2022-10-31T22:41:03.216Z,16.46
2022-10-31T22:43:30.829Z,16.37
2022-10-31T22:46:03.423Z,16.28
2022-10-31T22:48:32.669Z,16.40
2022-10-31T22:51:05.269Z,16.41
2022-10-31T22:53:32.992Z,16.30
2022-10-31T22:56:00.641Z,16.22
2022-10-31T22:58:34.364Z,16.28
2022-10-31T23:01:07.000Z,16.20
2022-10-31T23:03:34.893Z,16.17
2022-10-31T23:06:03.913Z,16.21
2022-10-31T23:08:33.053Z,16.39
2022-10-31T23:11:00.761Z,16.42
2022-10-31T23:13:45.730Z,16.42
2022-10-31T23:16:14.838Z,16.44
2022-10-31T23:18:50.230Z,16.50
2022-10-31T23:24:13.074Z,16.63
2022-10-31T23:26:58.587Z,16.57
2022-10-31T23:29:26.216Z,16.71
2022-10-31T23:31:54.433Z,16.70
2022-10-31T23:34:22.684Z,16.75
2022-10-31T23:36:50.717Z,16.74
2022-10-31T23:39:22.693Z,16.83
2022-10-31T23:41:52.936Z,16.96
2022-10-31T23:44:20.703Z,16.93
2022-10-31T23:46:48.344Z,16.98
2022-10-31T23:49:16.020Z,16.99
2022-10-31T23:51:43.830Z,16.93
2022-10-31T23:54:11.737Z,16.97
2022-10-31T23:56:40.770Z,16.88
2022-10-31T23:59:08.667Z,17.01
